createdAt,value
2023-10-20T00:02:05.676Z,10.55
2023-10-20T00:04:34.780Z,10.00
2023-10-20T00:07:03.966Z,7.50
2023-10-20T00:09:33.315Z,8.50
2023-10-20T00:12:01.264Z,9.30
2023-10-20T00:14:29.224Z,9.60
2023-10-20T00:16:57.344Z,9.23
2023-10-20T00:19:25.475Z,8.35
2023-10-20T00:21:53.515Z,8.90
2023-10-20T00:24:22.507Z,8.60
2023-10-20T00:26:51.810Z,8.55
2023-10-20T00:29:20.567Z,8.00
2023-10-20T00:31:48.640Z,7.90
2023-10-20T00:34:16.559Z,9.07
2023-10-20T00:36:44.487Z,9.93
2023-10-20T00:39:13.573Z,7.90
2023-10-20T00:41:41.489Z,8.02
2023-10-20T00:44:10.790Z,8.85
2023-10-20T00:46:38.773Z,8.98
2023-10-20T00:49:06.795Z,7.45
2023-10-20T00:51:34.878Z,7.40
2023-10-20T00:54:03.108Z,7.90
2023-10-20T00:56:31.261Z,7.65
2023-10-20T00:58:59.212Z,7.38
2023-10-20T01:01:28.503Z,6.72
2023-10-20T01:03:56.605Z,8.07
2023-10-20T01:06:24.658Z,8.55
2023-10-20T01:08:56.123Z,8.98
2023-10-20T01:11:24.061Z,8.00
2023-10-20T01:13:52.256Z,8.82
2023-10-20T01:16:20.541Z,7.30
2023-10-20T01:18:50.909Z,8.85
2023-10-20T01:21:19.431Z,7.30
2023-10-20T01:23:47.378Z,9.20
2023-10-20T01:26:16.683Z,7.85
2023-10-20T01:28:44.779Z,7.57
2023-10-20T01:31:13.807Z,8.18
2023-10-20T01:33:41.767Z,7.53
2023-10-20T01:36:09.643Z,8.68
2023-10-20T01:38:37.671Z,7.97
2023-10-20T01:41:07.602Z,7.68
2023-10-20T01:43:36.908Z,8.52
2023-10-20T01:46:05.133Z,8.75
2023-10-20T01:48:32.983Z,7.45
2023-10-20T01:51:02.017Z,7.78
2023-10-20T01:53:29.949Z,8.77
2023-10-20T01:55:57.914Z,8.02
2023-10-20T01:58:26.064Z,7.63
2023-10-20T02:00:55.431Z,7.93
2023-10-20T02:03:24.960Z,9.02
2023-10-20T02:05:53.173Z,7.75
2023-10-20T02:08:21.597Z,7.60
2023-10-20T02:10:49.515Z,8.50
2023-10-20T02:13:17.434Z,8.45
2023-10-20T02:15:47.460Z,8.63
2023-10-20T02:18:16.854Z,8.10
2023-10-20T02:20:44.887Z,7.97
2023-10-20T02:23:13.185Z,8.55
2023-10-20T02:25:41.167Z,7.60
2023-10-20T02:28:09.054Z,10.35
2023-10-20T02:30:38.054Z,8.93
2023-10-20T02:33:06.872Z,8.85
2023-10-20T02:35:36.342Z,8.23
2023-10-20T02:38:05.341Z,7.40
2023-10-20T02:40:34.364Z,7.85
2023-10-20T02:43:02.445Z,7.38
2023-10-20T02:45:30.509Z,8.38
2023-10-20T02:47:58.835Z,8.25
2023-10-20T02:50:28.723Z,7.80
2023-10-20T02:52:57.963Z,8.15
2023-10-20T02:55:27.401Z,8.00
2023-10-20T02:57:55.335Z,8.85
2023-10-20T03:00:24.072Z,8.27
2023-10-20T03:02:53.879Z,7.18
2023-10-20T03:05:23.081Z,7.35
2023-10-20T03:07:51.049Z,7.70
2023-10-20T03:10:21.507Z,8.15
2023-10-20T03:12:49.388Z,9.02
2023-10-20T03:15:17.351Z,8.73
2023-10-20T03:17:46.922Z,8.68
2023-10-20T03:20:18.721Z,7.38
2023-10-20T03:22:49.216Z,8.60
2023-10-20T03:25:19.068Z,8.07
2023-10-20T03:27:48.403Z,7.53
2023-10-20T03:30:17.478Z,6.68
2023-10-20T03:32:45.883Z,7.57
2023-10-20T03:35:14.252Z,8.10
2023-10-20T03:37:42.735Z,8.88
2023-10-20T03:40:14.476Z,7.78
2023-10-20T03:42:44.148Z,7.30
2023-10-20T03:45:15.666Z,8.60
2023-10-20T03:47:45.500Z,7.60
2023-10-20T03:50:18.655Z,8.23
2023-10-20T03:52:47.903Z,7.72
2023-10-20T03:55:16.002Z,7.78
2023-10-20T03:57:44.211Z,7.72
2023-10-20T04:00:22.950Z,7.40
2023-10-20T04:02:53.202Z,8.55
2023-10-20T04:05:21.775Z,9.73
2023-10-20T04:07:49.859Z,6.97
2023-10-20T04:10:19.778Z,7.38
2023-10-20T04:12:48.316Z,7.80
2023-10-20T04:15:18.177Z,7.72
2023-10-20T04:17:46.254Z,7.50
2023-10-20T04:20:19.234Z,8.18
2023-10-20T04:22:50.319Z,8.45
2023-10-20T04:25:18.914Z,7.88
2023-10-20T04:27:55.383Z,8.25
2023-10-20T04:30:40.661Z,8.10
2023-10-20T04:33:26.207Z,7.70
2023-10-20T04:36:13.570Z,7.32
2023-10-20T04:38:58.829Z,7.90
2023-10-20T04:41:44.230Z,7.53
2023-10-20T04:44:32.018Z,7.32
2023-10-20T04:47:17.532Z,8.15
2023-10-20T04:50:22.657Z,7.82
2023-10-20T04:53:00.187Z,7.53
2023-10-20T04:55:41.982Z,7.55
2023-10-20T04:58:14.569Z,8.43
2023-10-20T05:00:43.413Z,6.88
2023-10-20T05:03:46.181Z,8.07
2023-10-20T05:06:26.858Z,8.02
2023-10-20T05:08:56.098Z,7.43
2023-10-20T05:11:24.023Z,6.80
2023-10-20T05:13:52.031Z,7.25
2023-10-20T05:16:22.997Z,6.65
2023-10-20T05:18:50.978Z,6.05
2023-10-20T05:21:19.703Z,6.57
2023-10-20T05:23:48.379Z,7.32
2023-10-20T05:26:17.651Z,6.70
2023-10-20T05:28:46.220Z,6.45
2023-10-20T05:31:14.195Z,6.35
2023-10-20T05:33:42.171Z,7.22
2023-10-20T05:36:11.254Z,6.28
2023-10-20T05:38:39.204Z,6.65
2023-10-20T05:41:07.110Z,6.68
2023-10-20T05:43:36.460Z,5.85
2023-10-20T05:46:04.672Z,6.05
2023-10-20T05:48:33.008Z,6.25
2023-10-20T05:51:00.981Z,6.28
2023-10-20T05:53:29.026Z,6.25
2023-10-20T05:55:58.858Z,6.20
2023-10-20T05:58:26.784Z,7.28
2023-10-20T06:01:03.149Z,5.63
2023-10-20T06:03:32.100Z,5.72
2023-10-20T06:06:01.082Z,6.30
2023-10-20T06:08:30.255Z,6.10
2023-10-20T06:11:03.500Z,5.85
2023-10-20T06:13:31.575Z,9.40
2023-10-20T06:16:05.882Z,5.93
2023-10-20T06:18:36.354Z,6.00
2023-10-20T06:21:05.418Z,6.03
2023-10-20T06:23:33.414Z,10.43
2023-10-20T06:26:01.371Z,6.97
2023-10-20T06:28:29.286Z,8.95
2023-10-20T06:31:01.737Z,6.97
2023-10-20T06:33:34.747Z,8.00
2023-10-20T06:36:11.913Z,5.80
2023-10-20T06:38:46.534Z,12.15
2023-10-20T06:41:15.269Z,6.35
2023-10-20T06:43:43.372Z,7.63
2023-10-20T06:46:11.493Z,9.05
2023-10-20T06:48:40.814Z,6.80
2023-10-20T06:51:08.761Z,6.25
2023-10-20T06:53:36.780Z,7.53
2023-10-20T06:56:15.461Z,6.80
2023-10-20T06:58:45.279Z,7.15
2023-10-20T07:01:13.236Z,6.47
2023-10-20T07:03:42.987Z,6.78
2023-10-20T07:06:12.392Z,6.45
2023-10-20T07:08:40.887Z,6.63
2023-10-20T07:11:09.077Z,7.57
2023-10-20T07:13:36.974Z,5.65
2023-10-20T07:16:05.052Z,5.72
2023-10-20T07:18:33.280Z,5.68
2023-10-20T07:21:04.236Z,6.07
2023-10-20T07:23:33.287Z,6.57
2023-10-20T07:26:01.440Z,5.75
2023-10-20T07:28:29.298Z,7.05
2023-10-20T07:30:57.430Z,5.65
2023-10-20T07:33:25.509Z,8.27
2023-10-20T07:35:53.936Z,5.60
2023-10-20T07:38:23.244Z,5.47
2023-10-20T07:43:26.439Z,4.32
2023-10-20T07:45:54.556Z,7.20
2023-10-20T07:48:22.498Z,5.68
2023-10-20T07:50:50.410Z,4.45
2023-10-20T07:53:19.458Z,5.30
2023-10-20T07:55:48.736Z,4.50
2023-10-20T07:58:16.611Z,5.25
2023-10-20T08:00:44.514Z,4.15
2023-10-20T08:03:12.881Z,4.60
2023-10-20T08:05:41.131Z,4.30
2023-10-20T08:08:09.994Z,4.70
2023-10-20T08:10:38.292Z,23.73
2023-10-20T08:13:07.520Z,9.82
2023-10-20T08:15:37.900Z,5.15
2023-10-20T08:18:06.197Z,6.45
2023-10-20T08:20:34.257Z,3.20
2023-10-20T08:23:02.464Z,7.68
2023-10-20T08:25:30.352Z,10.00
2023-10-20T08:27:58.737Z,4.95
2023-10-20T08:30:28.005Z,4.43
2023-10-20T08:32:56.079Z,5.40
2023-10-20T08:35:24.333Z,4.13
2023-10-20T08:37:52.384Z,7.43
2023-10-20T08:40:20.596Z,6.60
2023-10-20T08:42:48.542Z,7.47
2023-10-20T08:45:17.013Z,3.42
2023-10-20T08:47:46.403Z,4.07
2023-10-20T08:50:17.205Z,10.38
2023-10-20T08:52:46.221Z,3.08
2023-10-20T08:55:14.650Z,2.90
2023-10-20T08:57:42.826Z,4.05
2023-10-20T09:00:20.430Z,4.80
2023-10-20T09:02:49.823Z,5.55
2023-10-20T09:05:21.656Z,3.45
2023-10-20T09:07:52.900Z,8.45
2023-10-20T09:10:20.797Z,4.88
2023-10-20T09:12:49.170Z,3.05
2023-10-20T09:15:17.076Z,3.15
2023-10-20T09:17:46.056Z,4.82
2023-10-20T09:20:15.895Z,2.72
2023-10-20T09:22:43.808Z,5.50
2023-10-20T09:25:12.885Z,6.32
2023-10-20T09:27:40.758Z,3.78
2023-10-20T09:30:11.836Z,2.67
2023-10-20T09:32:39.831Z,3.53
2023-10-20T09:35:08.017Z,3.45
2023-10-20T09:37:38.023Z,6.15
2023-10-20T09:40:07.742Z,2.45
2023-10-20T09:42:38.448Z,1.90
2023-10-20T09:45:07.437Z,4.00
2023-10-20T09:47:35.456Z,1.95
2023-10-20T09:50:03.807Z,2.05
2023-10-20T09:52:31.699Z,2.35
2023-10-20T09:55:00.912Z,4.47
2023-10-20T09:57:28.878Z,2.78
2023-10-20T09:59:56.741Z,1.70
2023-10-20T10:02:30.600Z,6.22
2023-10-20T10:04:59.002Z,1.88
2023-10-20T10:07:28.475Z,1.92
2023-10-20T10:09:56.838Z,1.88
2023-10-20T10:12:27.050Z,1.98
2023-10-20T10:14:58.668Z,2.00
2023-10-20T10:17:28.034Z,1.95
2023-10-20T10:19:56.833Z,1.63
2023-10-20T10:22:25.216Z,2.20
2023-10-20T10:24:53.723Z,1.65
2023-10-20T10:27:23.482Z,1.55
2023-10-20T10:29:54.750Z,1.92
2023-10-20T10:32:26.204Z,2.00
2023-10-20T10:34:57.515Z,1.45
2023-10-20T10:37:34.064Z,1.88
2023-10-20T10:40:08.438Z,2.28
2023-10-20T10:42:40.350Z,1.10
2023-10-20T10:45:20.997Z,1.13
2023-10-20T10:47:49.339Z,1.33
2023-10-20T10:50:18.215Z,1.48
2023-10-20T10:52:46.418Z,4.18
2023-10-20T10:55:14.647Z,2.33
2023-10-20T10:57:42.966Z,3.65
2023-10-20T11:00:14.576Z,2.17
2023-10-20T11:02:44.009Z,3.38
2023-10-20T11:05:11.956Z,3.25
2023-10-20T11:07:39.917Z,3.38
2023-10-20T11:10:08.644Z,1.95
2023-10-20T11:12:36.836Z,4.35
2023-10-20T11:15:05.156Z,3.15
2023-10-20T11:17:33.191Z,4.45
2023-10-20T11:20:02.821Z,2.97
2023-10-20T11:22:38.339Z,4.30
2023-10-20T11:25:07.492Z,7.53
2023-10-20T11:27:41.263Z,3.10
2023-10-20T11:30:11.108Z,2.50
2023-10-20T11:32:39.298Z,2.30
2023-10-20T11:35:08.834Z,2.78
2023-10-20T11:37:36.790Z,7.20
2023-10-20T11:40:05.588Z,3.30
2023-10-20T11:42:33.521Z,1.38
2023-10-20T11:45:02.194Z,2.25
2023-10-20T11:47:30.162Z,3.15
2023-10-20T11:49:58.498Z,1.75
2023-10-20T11:52:27.960Z,1.60
2023-10-20T11:54:55.947Z,4.80
2023-10-20T11:57:23.859Z,2.38
2023-10-20T11:59:53.100Z,3.53
2023-10-20T12:02:23.088Z,3.88
2023-10-20T12:04:52.163Z,2.75
2023-10-20T12:07:20.543Z,3.78
2023-10-20T12:09:50.020Z,1.92
2023-10-20T12:12:18.367Z,2.22
2023-10-20T12:14:46.410Z,4.97
2023-10-20T12:17:14.709Z,2.55
2023-10-20T12:19:42.698Z,2.83
2023-10-20T12:22:10.623Z,2.55
2023-10-20T12:24:38.531Z,4.97
2023-10-20T12:27:08.151Z,3.22
2023-10-20T12:29:36.046Z,1.52
2023-10-20T12:32:04.699Z,10.60
2023-10-20T12:34:33.585Z,2.38
2023-10-20T12:37:02.905Z,1.02
2023-10-20T12:39:32.319Z,6.45
2023-10-20T12:42:03.817Z,2.63
2023-10-20T12:44:35.125Z,2.35
2023-10-20T12:47:03.565Z,4.00
2023-10-20T12:49:32.684Z,35.38
2023-10-20T12:52:01.064Z,17.23
2023-10-20T12:54:29.817Z,15.32
2023-10-20T12:56:59.893Z,18.00
2023-10-20T12:59:28.035Z,13.35
2023-10-20T13:01:57.444Z,17.35
2023-10-20T13:04:25.562Z,15.18
2023-10-20T13:07:00.642Z,15.85
2023-10-20T13:09:29.209Z,21.60
2023-10-20T13:11:58.563Z,13.82
2023-10-20T13:14:26.761Z,13.27
2023-10-20T13:16:54.733Z,11.98
2023-10-20T13:19:24.192Z,12.02
2023-10-20T13:21:52.293Z,12.85
2023-10-20T13:24:20.184Z,9.30
2023-10-20T13:26:48.250Z,13.77
2023-10-20T13:29:16.746Z,9.85
2023-10-20T13:31:44.747Z,9.93
2023-10-20T13:34:12.827Z,7.25
2023-10-20T13:36:42.059Z,7.43
2023-10-20T13:41:41.322Z,7.95
2023-10-20T13:44:11.207Z,4.70
2023-10-20T13:46:39.296Z,8.52
2023-10-20T13:49:07.921Z,6.35
2023-10-20T13:51:36.039Z,3.42
2023-10-20T13:54:05.711Z,5.25
2023-10-20T13:56:34.175Z,7.50
2023-10-20T13:59:02.151Z,5.38
2023-10-20T14:01:30.076Z,5.35
2023-10-20T14:03:58.116Z,2.67
2023-10-20T14:06:26.232Z,5.28
2023-10-20T14:08:54.212Z,3.92
2023-10-20T14:11:23.513Z,8.25
2023-10-20T14:13:51.416Z,3.55
2023-10-20T14:16:19.318Z,3.67
2023-10-20T14:18:47.378Z,4.97
2023-10-20T14:21:15.302Z,7.82
2023-10-20T14:23:43.265Z,7.15
2023-10-20T14:26:11.215Z,8.52
2023-10-20T14:28:40.393Z,3.78
2023-10-20T14:31:08.496Z,4.88
2023-10-20T14:33:36.537Z,6.78
2023-10-20T14:36:04.730Z,4.57
2023-10-20T14:38:32.843Z,3.22
2023-10-20T14:41:03.030Z,3.83
2023-10-20T14:43:33.409Z,4.53
2023-10-20T14:46:02.789Z,5.57
2023-10-20T14:48:30.823Z,7.57
2023-10-20T14:50:59.544Z,3.25
2023-10-20T14:53:27.509Z,5.50
2023-10-20T14:55:56.330Z,4.60
2023-10-20T14:58:24.322Z,4.20
2023-10-20T15:00:52.406Z,2.85
2023-10-20T15:03:22.201Z,4.03
2023-10-20T15:05:50.563Z,4.18
2023-10-20T15:08:18.744Z,4.30
2023-10-20T15:10:46.729Z,2.10
2023-10-20T15:13:16.209Z,3.40
2023-10-20T15:15:44.291Z,3.42
2023-10-20T15:18:12.582Z,6.13
2023-10-20T15:20:42.583Z,5.97
2023-10-20T15:23:18.049Z,4.28
2023-10-20T15:25:46.754Z,6.97
2023-10-20T15:28:14.893Z,5.55
2023-10-20T15:30:42.853Z,4.75
2023-10-20T15:33:11.325Z,4.55
2023-10-20T15:35:39.973Z,3.10
2023-10-20T15:38:11.322Z,4.70
2023-10-20T15:40:39.500Z,4.97
2023-10-20T15:43:07.445Z,5.60
2023-10-20T15:45:35.435Z,3.25
2023-10-20T15:48:04.280Z,6.28
2023-10-20T15:50:33.538Z,4.75
2023-10-20T15:53:03.763Z,3.85
2023-10-20T15:55:33.093Z,8.10
2023-10-20T15:58:00.963Z,3.22
2023-10-20T16:00:28.856Z,4.15
2023-10-20T16:02:56.855Z,4.78
2023-10-20T16:05:24.866Z,3.85
2023-10-20T16:07:52.700Z,8.27
2023-10-20T16:10:20.835Z,3.78
2023-10-20T16:12:50.071Z,4.20
2023-10-20T16:15:18.033Z,5.25
2023-10-20T16:17:46.371Z,7.60
2023-10-20T16:20:15.870Z,4.18
2023-10-20T16:22:43.842Z,4.03
2023-10-20T16:25:11.741Z,8.90
2023-10-20T16:27:39.601Z,8.25
2023-10-20T16:30:10.421Z,8.63
2023-10-20T16:32:39.607Z,5.45
2023-10-20T16:35:09.093Z,3.45
2023-10-20T16:37:36.944Z,8.65
2023-10-20T16:40:07.376Z,3.60
2023-10-20T16:42:35.366Z,32.78
2023-10-20T16:45:07.900Z,54.50
2023-10-20T16:47:37.534Z,42.20
2023-10-20T16:50:05.831Z,28.70
2023-10-20T16:52:35.601Z,30.15
2023-10-20T16:55:03.615Z,31.30
2023-10-20T16:57:31.526Z,24.30
2023-10-20T16:59:59.544Z,30.08
2023-10-20T17:02:27.485Z,24.88
2023-10-20T17:04:56.897Z,24.42
2023-10-20T17:07:24.958Z,24.83
2023-10-20T17:09:52.890Z,25.30
2023-10-20T17:12:21.471Z,21.73
2023-10-20T17:14:49.419Z,17.02
2023-10-20T17:17:17.334Z,24.30
2023-10-20T17:19:45.296Z,20.60
2023-10-20T17:22:14.633Z,19.65
2023-10-20T17:24:43.730Z,19.05
2023-10-20T17:27:11.625Z,16.45
2023-10-20T17:29:39.549Z,16.10
2023-10-20T17:32:07.369Z,20.52
2023-10-20T17:34:38.188Z,16.73
2023-10-20T17:37:06.172Z,14.93
2023-10-20T17:39:35.577Z,17.88
2023-10-20T17:42:04.953Z,15.13
2023-10-20T17:44:33.037Z,15.02
2023-10-20T17:47:01.358Z,13.75
2023-10-20T17:49:29.257Z,16.17
2023-10-20T17:51:57.412Z,13.32
2023-10-20T17:54:25.383Z,10.38
2023-10-20T17:56:54.719Z,11.25
2023-10-20T17:59:23.485Z,12.25
2023-10-20T18:01:51.525Z,13.93
2023-10-20T18:04:19.731Z,12.30
2023-10-20T18:06:47.752Z,12.90
2023-10-20T18:09:16.488Z,11.98
2023-10-20T18:11:44.431Z,12.52
2023-10-20T18:14:13.689Z,12.70
2023-10-20T18:16:41.627Z,10.35
2023-10-20T18:19:10.736Z,13.27
2023-10-20T18:21:40.341Z,13.07
2023-10-20T18:24:09.435Z,9.05
2023-10-20T18:26:37.467Z,11.82
2023-10-20T18:29:05.637Z,9.15
2023-10-20T18:31:34.901Z,11.38
2023-10-20T18:34:03.500Z,9.07
2023-10-20T18:36:31.957Z,11.27
2023-10-20T18:38:59.890Z,9.68
2023-10-20T18:41:28.295Z,12.63
2023-10-20T18:43:56.571Z,8.05
2023-10-20T18:46:25.207Z,10.65
2023-10-20T18:48:54.894Z,10.15
2023-10-20T18:51:22.775Z,10.20
2023-10-20T18:53:50.835Z,9.40
2023-10-20T18:56:18.814Z,9.10
2023-10-20T18:58:47.790Z,9.82
2023-10-20T19:01:15.905Z,8.15
2023-10-20T19:03:44.246Z,8.98
2023-10-20T19:06:14.249Z,11.68
2023-10-20T19:08:42.893Z,10.20
2023-10-20T19:11:12.354Z,8.00
2023-10-20T19:13:40.310Z,9.20
2023-10-20T19:16:08.290Z,23.70
2023-10-20T19:18:36.424Z,9.20
2023-10-20T19:21:06.194Z,8.73
2023-10-20T19:23:35.579Z,10.38
2023-10-20T19:26:05.366Z,37.00
2023-10-20T19:28:33.268Z,13.68
2023-10-20T19:31:01.622Z,14.70
2023-10-20T19:33:29.705Z,10.95
2023-10-20T19:35:57.778Z,7.18
2023-10-20T19:38:25.712Z,9.30
2023-10-20T19:40:55.137Z,6.05
2023-10-20T19:43:23.207Z,6.93
2023-10-20T19:45:51.119Z,6.55
2023-10-20T19:48:19.048Z,8.98
2023-10-20T19:50:47.097Z,4.80
2023-10-20T19:53:15.036Z,7.95
2023-10-20T19:55:44.119Z,7.00
2023-10-20T19:58:13.515Z,5.50
2023-10-20T20:00:41.629Z,5.45
2023-10-20T20:03:11.948Z,5.18
2023-10-20T20:05:40.107Z,4.53
2023-10-20T20:08:08.769Z,5.55
2023-10-20T20:10:36.656Z,6.53
2023-10-20T20:13:05.006Z,3.85
2023-10-20T20:15:34.419Z,4.72
2023-10-20T20:18:02.426Z,3.03
2023-10-20T20:20:30.464Z,5.28
2023-10-20T20:23:01.100Z,5.88
2023-10-20T20:25:29.002Z,4.50
2023-10-20T20:27:56.875Z,4.72
2023-10-20T20:30:24.798Z,4.82
2023-10-20T20:32:54.195Z,9.93
2023-10-20T20:35:23.168Z,6.05
2023-10-20T20:37:51.404Z,7.22
2023-10-20T20:40:19.438Z,8.15
2023-10-20T20:42:47.880Z,5.75
2023-10-20T20:45:16.026Z,19.27
2023-10-20T20:47:44.094Z,16.30
2023-10-20T20:50:26.181Z,8.57
2023-10-20T20:53:00.465Z,20.02
2023-10-20T20:55:28.334Z,17.95
2023-10-20T20:57:56.228Z,10.13
2023-10-20T21:00:26.823Z,16.77
2023-10-20T21:02:54.853Z,10.43
2023-10-20T21:05:24.193Z,6.10
2023-10-20T21:07:52.080Z,6.68
2023-10-20T21:10:19.933Z,17.33
2023-10-20T21:12:48.331Z,10.32
2023-10-20T21:15:16.274Z,12.38
2023-10-20T21:17:44.536Z,5.68
2023-10-20T21:20:12.806Z,4.78
2023-10-20T21:22:42.058Z,8.38
2023-10-20T21:25:10.421Z,11.10
2023-10-20T21:27:38.330Z,8.07
2023-10-20T21:30:09.108Z,7.28
2023-10-20T21:32:37.083Z,6.05
2023-10-20T21:35:05.816Z,3.97
2023-10-20T21:37:33.734Z,7.93
2023-10-20T21:40:03.560Z,7.27
2023-10-20T21:42:33.731Z,7.25
2023-10-20T21:45:01.741Z,5.53
2023-10-20T21:47:29.742Z,2.78
2023-10-20T21:49:57.610Z,7.75
2023-10-20T21:52:25.504Z,3.58
2023-10-20T21:54:54.895Z,1.85
2023-10-20T21:57:24.222Z,9.05
2023-10-20T21:59:52.174Z,5.38
2023-10-20T22:02:20.280Z,2.83
2023-10-20T22:04:48.149Z,6.47
2023-10-20T22:07:15.995Z,3.67
2023-10-20T22:09:53.759Z,2.75
2023-10-20T22:12:23.845Z,2.42
2023-10-20T22:14:51.826Z,6.78
2023-10-20T22:17:19.796Z,2.65
2023-10-20T22:19:47.784Z,4.53
2023-10-20T22:22:15.679Z,7.05
2023-10-20T22:24:43.601Z,3.45
2023-10-20T22:27:11.788Z,4.55
2023-10-20T22:29:41.277Z,7.03
2023-10-20T22:32:09.951Z,3.75
2023-10-20T22:34:37.896Z,3.40
2023-10-20T22:37:05.901Z,2.08
2023-10-20T22:39:34.110Z,3.80
2023-10-20T22:42:02.231Z,4.38
2023-10-20T22:44:30.913Z,6.10
2023-10-20T22:47:00.223Z,4.65
2023-10-20T22:49:28.116Z,4.78
2023-10-20T22:51:56.053Z,4.72
2023-10-20T22:54:24.073Z,2.22
2023-10-20T22:56:52.029Z,1.42
2023-10-20T22:59:20.623Z,8.40
2023-10-20T23:01:49.023Z,2.20
2023-10-20T23:04:19.284Z,1.60
2023-10-20T23:06:48.218Z,2.42
2023-10-20T23:09:16.161Z,6.20
2023-10-20T23:11:44.312Z,2.47
2023-10-20T23:14:12.252Z,2.53
2023-10-20T23:16:40.260Z,1.85
2023-10-20T23:19:08.182Z,2.13
2023-10-20T23:21:37.520Z,3.97
2023-10-20T23:24:05.794Z,1.70
2023-10-20T23:26:33.737Z,3.47
2023-10-20T23:29:01.634Z,2.63
2023-10-20T23:31:29.813Z,2.72
2023-10-20T23:33:57.685Z,2.63
2023-10-20T23:36:25.673Z,8.00
2023-10-20T23:38:54.982Z,2.90
2023-10-20T23:41:23.070Z,2.38
2023-10-20T23:43:50.963Z,3.88
2023-10-20T23:46:18.883Z,2.75
2023-10-20T23:48:48.217Z,2.85
2023-10-20T23:51:16.268Z,3.25
2023-10-20T23:53:44.245Z,2.78
2023-10-20T23:56:13.450Z,1.92
2023-10-20T23:58:41.328Z,1.38
